Nashville, Tennessee
Traffic Map
Current Weather Conditions
Nashville, Tennessee
Scattered Clouds
Scattered Clouds
14°
Feels Like: 14°
Wind Chill: 14° Ceiling: Unl
Heat Index: 14° Visibility: 10mi
Dew Point: 13° Wind: 3mph
Humidity: 90% Direction: 220° (SW)
Pressure: 30.05in Gusts: 0mph
Raw Report DataKBNA 010453Z 22003KT 10SM SCT100 14/13 A3005 RMK AO2 SLP172 T01440128
Traffic Incident Summary
Active as of:
Severity:
Category:
InformationThere was an issue retrieving the traffic information for this location. Please try a different location or try again shortly.
Advertisements
Track Severe Weather on mobile